Hauptseite
METAR-TAF:

METAR-TAF

Flughäfen :

Flughafen Bergamo

Bergamo, Italien

Breite: 45-40N, Länge: 009-42E, Höhe: 238 m

Beobachtung

Neuester Wetterbericht von vor 34 Minuten, um 10:50 UTC
Wind 4 kt aus West, variierte zwischen Südwest und Nord/Nordwest
Temperatur 4°C
Luftfeuchtigkeit 70%
Luftdruck 1017 hPa
Sichtweite 10 km oder mehr
Aufgelockert bewölkt in der Höhe von 3000 ft
Durchbrochene Bewölkung in der Höhe von 5000 ft
Schnee leicht

METAR: LIME 191050Z 28004KT 230V340 9999 -SN SCT030 BKN050 04/M01 Q1017 NOSIG

Zeit: 12:24 (11:24 UTC)

Prognose

Neuester Wetterbericht von vor 6 Stunden und 24 Minuten, um 05:00 UTC
Gültige Prognose vom 19 um 06 UTC bis 20 um 06 UTC
Wind 5 kt aus unterschiedlichen Richtungen
Sichtweite 10 km oder mehr
Durchbrochene Bewölkung in der Höhe von 4000 ft
Zeitweise
vom 19 um 06 UTC bis 19 um 08 UTC
Sprühregen

TAF: LIME 190500Z 1906/2006 VRB05KT 9999 BKN040 TEMPO 1906/1908 DZ

Wetterbeobachtungen und Prognosen von mehr als 4000 Flughäfen (METAR und TAF Bericht).

Die verfügbaren Stationen werden durch gelbe und rote Markierungen auf der Karte dargestellt.

Führen Sie die Maus auf sie, um den Namen der Station zu sehen.

Darauf klicken, um die Beobachtung von Wetterbeobachtungen und Prognosen zu sehen.

Um die Karte zu ändern : klicken Sie auf den grünen Tasten mit einem schwarzen Kreuz Zum Vergrößern, auf den grünen Button mit einem Gedankenstrich zu verkleinern, oder auf die grünen Pfeile für benachbarte Karten.


METAR-TAF: